createdAt,value
2019-05-18T00:01:56.785Z,96074.00
2019-05-18T00:04:26.660Z,96068.00
2019-05-18T00:06:56.325Z,96072.00
2019-05-18T00:09:26.181Z,96067.00
2019-05-18T00:11:56.548Z,96068.00
2019-05-18T00:14:26.424Z,96068.00
2019-05-18T00:16:56.070Z,96073.00
2019-05-18T00:19:26.312Z,96071.00
2019-05-18T00:21:55.949Z,96072.00
2019-05-18T00:24:25.947Z,96075.00
2019-05-18T00:26:55.589Z,96075.00
2019-05-18T00:29:25.228Z,96080.00
2019-05-18T00:31:54.868Z,96073.00
2019-05-18T00:34:24.511Z,96070.00
2019-05-18T00:36:54.517Z,96078.00
2019-05-18T00:39:24.425Z,96071.00
2019-05-18T00:41:54.041Z,96071.00
2019-05-18T00:44:23.917Z,96072.00
2019-05-18T00:46:54.038Z,96071.00
2019-05-18T00:49:24.288Z,96077.00
2019-05-18T00:51:54.405Z,96068.00
2019-05-18T00:54:24.157Z,96075.00
2019-05-18T00:56:53.799Z,96078.00
2019-05-18T00:59:23.440Z,96076.00
2019-05-18T01:01:53.082Z,96077.00
2019-05-18T01:04:23.838Z,96076.00
2019-05-18T01:06:53.929Z,96064.00
2019-05-18T01:09:23.819Z,96066.00
2019-05-18T01:11:53.463Z,96069.00
2019-05-18T01:14:23.566Z,96068.00
2019-05-18T01:16:53.690Z,96070.00
2019-05-18T01:19:23.575Z,96068.00
2019-05-18T01:21:53.221Z,96071.00
2019-05-18T01:24:22.974Z,96064.00
2019-05-18T01:26:52.608Z,96066.00
2019-05-18T01:29:22.250Z,96065.00
2019-05-18T01:31:52.251Z,96064.00
2019-05-18T01:34:22.131Z,96064.00
2019-05-18T01:36:51.774Z,96056.00
2019-05-18T01:39:21.416Z,96058.00
2019-05-18T01:41:51.177Z,96058.00
2019-05-18T01:44:21.176Z,96051.00
2019-05-18T01:46:50.817Z,96047.00
2019-05-18T01:49:20.474Z,96050.00
2019-05-18T01:51:50.120Z,96056.00
2019-05-18T01:54:19.983Z,96051.00
2019-05-18T01:56:49.739Z,96053.00
2019-05-18T01:59:19.380Z,96055.00
2019-05-18T02:01:49.023Z,96048.00
2019-05-18T02:04:18.665Z,96047.00
2019-05-18T02:06:48.423Z,96048.00
2019-05-18T02:09:18.069Z,96052.00
2019-05-18T02:11:47.960Z,96059.00
2019-05-18T02:14:17.705Z,96052.00
2019-05-18T02:16:47.349Z,96051.00
2019-05-18T02:19:17.110Z,96044.00
2019-05-18T02:21:46.749Z,96056.00
2019-05-18T02:24:16.750Z,96053.00
2019-05-18T02:26:46.394Z,96053.00
2019-05-18T02:29:16.154Z,96048.00
2019-05-18T02:31:46.043Z,96052.00
2019-05-18T02:34:15.795Z,96044.00
2019-05-18T02:36:45.675Z,96045.00
2019-05-18T02:39:15.436Z,96048.00
2019-05-18T02:41:45.680Z,96052.00
2019-05-18T02:44:15.805Z,96045.00
2019-05-18T02:46:45.438Z,96040.00
2019-05-18T02:49:15.442Z,96036.00
2019-05-18T02:51:45.324Z,96047.00
2019-05-18T02:54:15.324Z,96042.00
2019-05-18T02:56:45.089Z,96041.00
2019-05-18T02:59:14.975Z,96042.00
2019-05-18T03:01:44.852Z,96035.00
2019-05-18T03:04:14.971Z,96042.00
2019-05-18T03:06:44.726Z,96038.00
2019-05-18T03:09:14.502Z,96037.00
2019-05-18T03:11:44.485Z,96041.00
2019-05-18T03:14:14.490Z,96046.00
2019-05-18T03:16:44.490Z,96040.00
2019-05-18T03:19:14.254Z,96044.00
2019-05-18T03:21:44.494Z,96042.00
2019-05-18T03:24:14.611Z,96043.00
2019-05-18T03:26:44.858Z,96054.00
2019-05-18T03:29:15.465Z,96047.00
2019-05-18T03:31:45.231Z,96055.00
2019-05-18T03:34:15.343Z,96047.00
2019-05-18T03:36:45.218Z,96049.00
2019-05-18T03:39:15.469Z,96052.00
2019-05-18T03:41:45.701Z,96052.00
2019-05-18T03:44:16.040Z,96052.00
2019-05-18T03:46:46.179Z,96064.00
2019-05-18T03:49:26.414Z,96064.00
2019-05-18T03:51:47.739Z,96067.00
2019-05-18T03:54:17.858Z,96066.00
2019-05-18T03:56:48.132Z,96064.00
2019-05-18T03:59:17.871Z,96066.00
2019-05-18T04:01:47.621Z,96064.00
2019-05-18T04:04:18.565Z,96069.00
2019-05-18T04:06:48.586Z,96078.00
2019-05-18T04:09:18.351Z,96079.00
2019-05-18T04:11:48.473Z,96076.00
2019-05-18T04:14:18.354Z,96075.00
2019-05-18T04:16:48.241Z,96083.00
2019-05-18T04:19:17.885Z,96076.00
2019-05-18T04:21:47.507Z,96081.00
2019-05-18T04:24:17.280Z,96078.00
2019-05-18T04:26:47.155Z,96078.00
2019-05-18T04:29:17.402Z,96085.00
2019-05-18T04:31:47.637Z,96078.00
2019-05-18T04:34:17.403Z,96077.00
2019-05-18T04:36:47.031Z,96070.00
2019-05-18T04:39:17.157Z,96076.00
2019-05-18T04:41:47.042Z,96078.00
2019-05-18T04:44:16.805Z,96082.00
2019-05-18T04:46:46.689Z,96081.00
2019-05-18T04:49:16.328Z,96086.00
2019-05-18T04:51:46.203Z,96091.00
2019-05-18T04:54:15.984Z,96090.00
2019-05-18T04:56:45.965Z,96081.00
2019-05-18T04:59:15.721Z,96085.00
2019-05-18T05:01:45.384Z,96080.00
2019-05-18T05:04:15.014Z,96088.00
2019-05-18T05:06:45.017Z,96086.00
2019-05-18T05:09:14.890Z,96083.00
2019-05-18T05:11:44.764Z,96095.00
2019-05-18T05:14:14.771Z,96081.00
2019-05-18T05:16:44.407Z,96088.00
2019-05-18T05:19:14.177Z,96085.00
2019-05-18T05:21:43.943Z,96096.00
2019-05-18T05:24:13.697Z,96078.00
2019-05-18T05:26:43.335Z,96084.00
2019-05-18T05:29:13.099Z,96083.00
2019-05-18T05:31:42.996Z,96089.00
2019-05-18T05:34:12.736Z,96095.00
2019-05-18T05:36:42.985Z,96096.00
2019-05-18T05:39:13.098Z,96096.00
2019-05-18T05:41:42.861Z,96101.00
2019-05-18T05:44:12.977Z,96097.00
2019-05-18T05:46:43.230Z,96100.00
2019-05-18T05:49:13.339Z,96102.00
2019-05-18T05:51:43.476Z,96101.00
2019-05-18T05:54:13.709Z,96104.00
2019-05-18T05:56:43.475Z,96112.00
2019-05-18T05:59:13.590Z,96110.00
2019-05-18T06:01:43.592Z,96112.00
2019-05-18T06:04:14.063Z,96115.00
2019-05-18T06:06:43.830Z,96110.00
2019-05-18T06:09:13.949Z,96111.00
2019-05-18T06:11:43.835Z,96113.00
2019-05-18T06:14:13.833Z,96107.00
2019-05-18T06:16:43.957Z,96116.00
2019-05-18T06:19:13.717Z,96118.00
2019-05-18T06:21:43.480Z,96111.00
2019-05-18T06:24:13.573Z,96115.00
2019-05-18T06:26:43.845Z,96108.00
2019-05-18T06:29:13.836Z,96115.00
2019-05-18T06:31:43.837Z,96114.00
2019-05-18T06:34:14.104Z,96111.00
2019-05-18T06:36:43.836Z,96121.00
2019-05-18T06:39:14.103Z,96122.00
2019-05-18T06:41:44.320Z,96125.00
2019-05-18T06:44:14.437Z,96119.00
2019-05-18T06:46:44.197Z,96123.00
2019-05-18T06:49:14.200Z,96123.00
2019-05-18T06:51:43.969Z,96132.00
2019-05-18T06:54:13.728Z,96130.00
2019-05-18T06:56:45.040Z,96134.00
2019-05-18T06:59:17.334Z,96129.00
2019-05-18T07:01:47.210Z,96129.00
2019-05-18T07:04:17.086Z,96127.00
2019-05-18T07:06:47.097Z,96128.00
2019-05-18T07:09:16.845Z,96129.00
2019-05-18T07:11:46.495Z,96134.00
2019-05-18T07:14:25.155Z,96129.00
2019-05-18T07:16:48.313Z,96128.00
2019-05-18T07:19:18.533Z,96140.00
2019-05-18T07:21:48.411Z,96147.00
2019-05-18T07:24:18.293Z,96143.00
2019-05-18T07:26:48.545Z,96148.00
2019-05-18T07:29:18.322Z,96138.00
2019-05-18T07:31:48.416Z,96142.00
2019-05-18T07:34:18.549Z,96138.00
2019-05-18T07:36:48.540Z,96129.00
2019-05-18T07:39:18.777Z,96137.00
2019-05-18T07:41:48.543Z,96132.00
2019-05-18T07:44:18.663Z,96124.00
2019-05-18T07:46:48.801Z,96123.00
2019-05-18T07:49:18.898Z,96123.00
2019-05-18T07:51:49.229Z,96131.00
2019-05-18T07:54:19.265Z,96123.00
2019-05-18T07:56:49.028Z,96125.00
2019-05-18T07:59:19.945Z,96119.00
2019-05-18T08:01:49.745Z,96125.00
2019-05-18T08:04:19.989Z,96131.00
2019-05-18T08:06:49.995Z,96129.00
2019-05-18T08:09:19.872Z,96127.00
2019-05-18T08:11:50.201Z,96132.00
2019-05-18T08:14:19.874Z,96137.00
2019-05-18T08:16:49.871Z,96133.00
2019-05-18T08:19:19.878Z,96142.00
2019-05-18T08:21:53.253Z,96140.00
2019-05-18T08:24:21.072Z,96130.00
2019-05-18T08:26:51.321Z,96140.00
2019-05-18T08:29:20.954Z,96141.00
2019-05-18T08:31:50.737Z,96137.00
2019-05-18T08:34:20.360Z,96136.00
2019-05-18T08:36:50.479Z,96134.00
2019-05-18T08:39:20.121Z,96139.00
2019-05-18T08:41:50.370Z,96135.00
2019-05-18T08:44:20.124Z,96141.00
2019-05-18T08:46:50.359Z,96143.00
2019-05-18T08:49:20.603Z,96134.00
2019-05-18T08:51:50.721Z,96139.00
2019-05-18T08:54:20.484Z,96140.00
2019-05-18T08:56:50.248Z,96137.00
2019-05-18T08:59:20.372Z,96136.00
2019-05-18T09:01:50.490Z,96139.00
2019-05-18T09:04:20.250Z,96138.00
2019-05-18T09:06:50.489Z,96138.00
2019-05-18T09:09:20.728Z,96137.00
2019-05-18T09:11:50.973Z,96137.00
2019-05-18T09:14:20.991Z,96132.00
2019-05-18T09:16:50.733Z,96134.00
2019-05-18T09:19:20.617Z,96126.00
2019-05-18T09:21:50.977Z,96133.00
2019-05-18T09:24:20.743Z,96133.00
2019-05-18T09:26:50.493Z,96134.00
2019-05-18T09:29:20.186Z,96124.00
2019-05-18T09:31:50.491Z,96129.00
2019-05-18T09:34:20.259Z,96128.00
2019-05-18T09:36:50.022Z,96113.00
2019-05-18T09:39:20.161Z,96111.00
2019-05-18T09:41:49.898Z,96119.00
2019-05-18T09:44:19.662Z,96114.00
2019-05-18T09:46:49.897Z,96117.00
2019-05-18T09:49:20.023Z,96109.00
2019-05-18T09:51:49.782Z,96116.00
2019-05-18T09:54:20.162Z,96113.00
2019-05-18T09:56:49.907Z,96118.00
2019-05-18T09:59:19.902Z,96105.00
2019-05-18T10:01:50.054Z,96115.00
2019-05-18T10:04:20.041Z,96112.00
2019-05-18T10:06:52.560Z,96114.00
2019-05-18T10:09:22.333Z,96116.00
2019-05-18T10:11:52.429Z,96110.00
2019-05-18T10:14:22.428Z,96119.00
2019-05-18T10:16:52.306Z,96102.00
2019-05-18T10:19:22.796Z,96085.00
2019-05-18T10:21:52.551Z,96098.00
2019-05-18T10:24:22.196Z,96091.00
2019-05-18T10:26:51.952Z,96094.00
2019-05-18T10:29:21.729Z,96100.00
2019-05-18T10:31:51.958Z,96105.00
2019-05-18T10:34:21.848Z,96109.00
2019-05-18T10:36:51.841Z,96107.00
2019-05-18T10:39:22.293Z,96096.00
2019-05-18T10:41:52.207Z,96103.00
2019-05-18T10:44:22.083Z,96100.00
2019-05-18T10:46:52.203Z,96102.00
2019-05-18T10:49:22.682Z,96089.00
2019-05-18T10:51:52.449Z,96102.00
2019-05-18T10:54:22.088Z,96086.00
2019-05-18T10:56:51.855Z,96091.00
2019-05-18T10:59:21.960Z,96089.00
2019-05-18T11:01:52.088Z,96088.00
2019-05-18T11:04:21.846Z,96085.00
2019-05-18T11:06:51.844Z,96085.00
2019-05-18T11:09:21.726Z,96086.00
2019-05-18T11:11:51.494Z,96079.00
2019-05-18T11:14:21.610Z,96079.00
2019-05-18T11:16:51.846Z,96073.00
2019-05-18T11:19:21.850Z,96070.00
2019-05-18T11:21:52.704Z,96078.00
2019-05-18T11:24:24.496Z,96082.00
2019-05-18T11:26:54.251Z,96070.00
2019-05-18T11:29:24.950Z,96074.00
2019-05-18T11:31:55.217Z,96073.00
2019-05-18T11:34:24.974Z,96077.00
2019-05-18T11:36:54.737Z,96078.00
2019-05-18T11:39:24.730Z,96082.00
2019-05-18T11:41:54.636Z,96081.00
2019-05-18T11:44:24.616Z,96074.00
2019-05-18T11:46:54.742Z,96077.00
2019-05-18T11:49:24.859Z,96079.00
2019-05-18T11:51:54.760Z,96077.00
2019-05-18T11:54:25.088Z,96066.00
2019-05-18T11:56:55.399Z,96080.00
2019-05-18T11:59:25.219Z,96062.00
2019-05-18T12:01:55.339Z,96063.00
2019-05-18T12:04:25.604Z,96055.00
2019-05-18T12:06:55.240Z,96052.00
2019-05-18T12:09:25.123Z,96051.00
2019-05-18T12:11:55.075Z,96044.00
2019-05-18T12:14:25.360Z,96048.00
2019-05-18T12:16:55.349Z,96057.00
2019-05-18T12:19:25.470Z,96046.00
2019-05-18T12:21:55.232Z,96038.00
2019-05-18T12:24:25.111Z,96036.00
2019-05-18T12:26:54.997Z,96032.00
2019-05-18T12:29:24.973Z,96032.00
2019-05-18T12:31:54.640Z,96036.00
2019-05-18T12:34:25.002Z,96034.00
2019-05-18T12:36:55.237Z,96025.00
2019-05-18T12:39:25.358Z,96032.00
2019-05-18T12:41:55.251Z,96025.00
2019-05-18T12:44:25.364Z,96025.00
2019-05-18T12:46:55.217Z,96025.00
2019-05-18T12:49:25.245Z,96022.00
2019-05-18T12:51:54.877Z,96020.00
2019-05-18T12:54:29.550Z,96026.00
2019-05-18T12:56:55.965Z,96028.00
2019-05-18T12:59:27.727Z,96022.00
2019-05-18T13:01:57.757Z,96016.00
2019-05-18T13:04:27.761Z,96013.00
2019-05-18T13:06:57.654Z,96019.00
2019-05-18T13:09:27.885Z,96016.00
2019-05-18T13:11:58.126Z,96015.00
2019-05-18T13:14:32.604Z,96008.00
2019-05-18T13:17:02.686Z,96014.00
2019-05-18T13:19:32.455Z,96009.00
2019-05-18T13:22:02.214Z,96015.00
2019-05-18T13:24:44.236Z,96000.00
2019-05-18T13:27:06.262Z,96002.00
2019-05-18T13:29:36.414Z,96005.00
2019-05-18T13:32:06.187Z,95997.00
2019-05-18T13:34:37.939Z,95994.00
2019-05-18T13:37:08.217Z,95993.00
2019-05-18T13:39:38.461Z,95988.00
2019-05-18T13:42:08.573Z,95991.00
2019-05-18T13:44:38.398Z,95987.00
2019-05-18T13:47:08.606Z,95984.00
2019-05-18T13:49:38.587Z,95975.00
2019-05-18T13:52:08.214Z,95967.00
2019-05-18T13:54:38.587Z,95979.00
2019-05-18T13:57:08.486Z,95982.00
2019-05-18T13:59:38.222Z,95979.00
2019-05-18T14:02:08.104Z,95982.00
2019-05-18T14:04:38.233Z,95972.00
2019-05-18T14:07:08.106Z,95976.00
2019-05-18T14:09:38.121Z,95977.00
2019-05-18T14:12:08.224Z,95973.00
2019-05-18T14:14:37.985Z,95977.00
2019-05-18T14:17:07.868Z,95966.00
2019-05-18T14:19:37.876Z,95961.00
2019-05-18T14:22:08.108Z,95967.00
2019-05-18T14:24:37.922Z,95962.00
2019-05-18T14:27:07.891Z,95960.00
2019-05-18T14:29:37.993Z,95962.00
2019-05-18T14:32:10.826Z,95957.00
2019-05-18T14:34:40.033Z,95974.00
2019-05-18T14:37:10.272Z,95972.00
2019-05-18T14:39:40.629Z,95957.00
2019-05-18T14:42:10.755Z,95955.00
2019-05-18T14:44:40.516Z,95954.00
2019-05-18T14:47:10.755Z,95953.00
2019-05-18T14:49:40.964Z,95954.00
2019-05-18T14:52:12.210Z,95952.00
2019-05-18T14:54:42.687Z,95951.00
2019-05-18T14:57:12.927Z,95949.00
2019-05-18T14:59:43.047Z,95950.00
2019-05-18T15:02:13.291Z,95950.00
2019-05-18T15:04:43.051Z,95954.00
2019-05-18T15:07:13.401Z,95946.00
2019-05-18T15:09:43.158Z,95954.00
2019-05-18T15:12:13.042Z,95953.00
2019-05-18T15:14:42.809Z,95954.00
2019-05-18T15:17:12.573Z,95955.00
2019-05-18T15:19:42.837Z,95955.00
2019-05-18T15:22:13.415Z,95950.00
2019-05-18T15:24:43.613Z,95952.00
2019-05-18T15:27:13.290Z,95950.00
2019-05-18T15:29:43.169Z,95946.00
2019-05-18T15:32:13.654Z,95951.00
2019-05-18T15:34:43.549Z,95936.00
2019-05-18T15:37:14.517Z,95948.00
2019-05-18T15:39:45.600Z,95941.00
2019-05-18T15:42:15.895Z,95933.00
2019-05-18T15:44:45.951Z,95932.00
2019-05-18T15:47:16.058Z,95925.00
2019-05-18T15:49:45.813Z,95925.00
2019-05-18T15:52:17.518Z,95919.00
2019-05-18T15:54:47.826Z,95921.00
2019-05-18T15:57:17.998Z,95928.00
2019-05-18T15:59:47.626Z,95921.00
2019-05-18T16:02:17.990Z,95931.00
2019-05-18T16:04:47.622Z,95919.00
2019-05-18T16:07:17.764Z,95926.00
2019-05-18T16:09:47.383Z,95926.00
2019-05-18T16:12:17.262Z,95918.00
2019-05-18T16:14:47.387Z,95916.00
2019-05-18T16:17:17.139Z,95912.00
2019-05-18T16:19:46.907Z,95914.00
2019-05-18T16:22:17.033Z,95911.00
2019-05-18T16:24:47.148Z,95908.00
2019-05-18T16:27:17.412Z,95903.00
2019-05-18T16:29:54.345Z,95911.00
2019-05-18T16:32:24.109Z,95911.00
2019-05-18T16:34:54.469Z,95915.00
2019-05-18T16:37:24.353Z,95923.00
2019-05-18T16:39:54.713Z,95916.00
2019-05-18T16:42:24.390Z,95916.00
2019-05-18T16:44:54.115Z,95918.00
2019-05-18T16:47:23.769Z,95916.00
2019-05-18T16:49:53.877Z,95908.00
2019-05-18T16:52:25.147Z,95915.00
2019-05-18T16:54:55.080Z,95916.00
2019-05-18T16:57:25.194Z,95915.00
2019-05-18T16:59:55.558Z,95907.00
2019-05-18T17:02:31.515Z,95904.00
2019-05-18T17:04:59.157Z,95906.00
2019-05-18T17:07:29.046Z,95901.00
2019-05-18T17:09:59.281Z,95913.00
2019-05-18T17:12:29.043Z,95899.00
2019-05-18T17:14:58.683Z,95900.00
2019-05-18T17:17:28.800Z,95893.00
2019-05-18T17:19:58.805Z,95903.00
2019-05-18T17:22:28.808Z,95908.00
2019-05-18T17:24:58.443Z,95901.00
2019-05-18T17:27:28.612Z,95901.00
2019-05-18T17:29:58.451Z,95902.00
2019-05-18T17:32:28.571Z,95897.00
2019-05-18T17:34:58.458Z,95908.00
2019-05-18T17:37:28.449Z,95904.00
2019-05-18T17:39:58.336Z,95906.00
2019-05-18T17:42:31.099Z,95900.00
2019-05-18T17:45:00.858Z,95899.00
2019-05-18T17:47:30.979Z,95895.00
2019-05-18T17:50:00.737Z,95902.00
2019-05-18T17:52:30.518Z,95904.00
2019-05-18T17:55:00.265Z,95904.00
2019-05-18T17:57:30.380Z,95899.00
2019-05-18T18:00:00.379Z,95896.00
2019-05-18T18:02:30.620Z,95901.00
2019-05-18T18:05:00.743Z,95906.00
2019-05-18T18:07:31.103Z,95904.00
2019-05-18T18:10:01.720Z,95904.00
2019-05-18T18:12:31.943Z,95911.00
2019-05-18T18:15:02.181Z,95905.00
2019-05-18T18:17:32.082Z,95907.00
2019-05-18T18:20:02.313Z,95908.00
2019-05-18T18:22:32.434Z,95905.00
2019-05-18T18:25:02.183Z,95912.00
2019-05-18T18:27:32.196Z,95901.00
2019-05-18T18:30:01.949Z,95905.00
2019-05-18T18:32:32.335Z,95906.00
2019-05-18T18:35:02.434Z,95906.00
2019-05-18T18:37:32.434Z,95904.00
2019-05-18T18:40:02.675Z,95906.00
2019-05-18T18:42:32.897Z,95906.00
2019-05-18T18:45:02.800Z,95910.00
2019-05-18T18:47:32.444Z,95902.00
2019-05-18T18:50:02.199Z,95900.00
2019-05-18T18:52:31.839Z,95916.00
2019-05-18T18:55:02.021Z,95916.00
2019-05-18T18:57:40.617Z,95918.00
2019-05-18T19:00:03.763Z,95920.00
2019-05-18T19:02:33.763Z,95923.00
2019-05-18T19:05:04.005Z,95917.00
2019-05-18T19:07:33.757Z,95922.00
2019-05-18T19:10:04.016Z,95924.00
2019-05-18T19:12:34.243Z,95933.00
2019-05-18T19:15:05.571Z,95937.00
2019-05-18T19:17:35.449Z,95942.00
2019-05-18T19:20:07.495Z,95941.00
2019-05-18T19:22:37.612Z,95942.00
2019-05-18T19:25:08.207Z,95943.00
2019-05-18T19:27:38.328Z,95948.00
2019-05-18T19:30:10.578Z,95948.00
2019-05-18T19:32:40.615Z,95949.00
2019-05-18T19:35:11.017Z,95946.00
2019-05-18T19:37:40.855Z,95955.00
2019-05-18T19:40:10.997Z,95951.00
2019-05-18T19:42:40.618Z,95953.00
2019-05-18T19:45:11.130Z,95952.00
2019-05-18T19:47:41.068Z,95954.00
2019-05-18T19:50:11.595Z,95958.00
2019-05-18T19:52:41.587Z,95949.00
2019-05-18T19:55:11.824Z,95962.00
2019-05-18T19:57:41.819Z,95964.00
2019-05-18T20:00:12.521Z,95960.00
2019-05-18T20:02:42.192Z,95965.00
2019-05-18T20:05:11.941Z,95962.00
2019-05-18T20:07:41.717Z,95966.00
2019-05-18T20:10:12.820Z,95957.00
2019-05-18T20:12:42.422Z,95959.00
2019-05-18T20:15:13.381Z,95959.00
2019-05-18T20:17:43.630Z,95964.00
2019-05-18T20:20:13.985Z,95964.00
2019-05-18T20:22:44.226Z,95957.00
2019-05-18T20:25:15.428Z,95958.00
2019-05-18T20:27:45.550Z,95956.00
2019-05-18T20:30:15.797Z,95967.00
2019-05-18T20:32:45.911Z,95960.00
2019-05-18T20:35:16.869Z,95963.00
2019-05-18T20:37:47.237Z,95962.00
2019-05-18T20:40:17.466Z,95963.00
2019-05-18T20:42:47.118Z,95945.00
2019-05-18T20:45:16.873Z,95954.00
2019-05-18T20:47:46.766Z,95951.00
2019-05-18T20:50:16.997Z,95960.00
2019-05-18T20:52:46.757Z,95964.00
2019-05-18T20:55:16.762Z,95963.00
2019-05-18T20:57:46.645Z,95965.00
2019-05-18T21:00:17.980Z,95962.00
2019-05-18T21:02:47.839Z,95973.00
2019-05-18T21:05:17.723Z,95964.00
2019-05-18T21:07:47.479Z,95963.00
2019-05-18T21:10:17.484Z,95964.00
2019-05-18T21:12:47.599Z,95959.00
2019-05-18T21:15:19.278Z,95974.00
2019-05-18T21:17:48.929Z,95962.00
2019-05-18T21:20:19.059Z,95975.00
2019-05-18T21:22:48.807Z,95962.00
2019-05-18T21:25:18.933Z,95966.00
2019-05-18T21:27:48.804Z,95970.00
2019-05-18T21:30:18.807Z,95971.00
2019-05-18T21:32:48.688Z,95965.00
2019-05-18T21:35:18.331Z,95960.00
2019-05-18T21:37:48.453Z,95957.00
2019-05-18T21:40:18.456Z,95957.00
2019-05-18T21:42:48.581Z,95952.00
2019-05-18T21:45:18.815Z,95955.00
2019-05-18T21:47:48.696Z,95959.00
2019-05-18T21:50:19.186Z,95945.00
2019-05-18T21:52:48.940Z,95943.00
2019-05-18T21:55:19.054Z,95954.00
2019-05-18T21:57:49.299Z,95949.00
2019-05-18T22:00:20.501Z,95949.00
2019-05-18T22:02:50.620Z,95953.00
2019-05-18T22:05:20.616Z,95940.00
2019-05-18T22:07:50.499Z,95945.00
2019-05-18T22:10:25.735Z,95940.00
2019-05-18T22:12:52.670Z,95938.00
2019-05-18T22:15:22.307Z,95937.00
2019-05-18T22:18:04.810Z,95933.00
2019-05-18T22:20:43.585Z,95932.00
2019-05-18T22:23:10.434Z,95930.00
2019-05-18T22:25:40.185Z,95929.00
2019-05-18T22:28:09.823Z,95930.00
2019-05-18T22:30:40.087Z,95930.00
2019-05-18T22:33:10.196Z,95929.00
2019-05-18T22:35:40.193Z,95921.00
2019-05-18T22:38:10.199Z,95925.00
2019-05-18T22:40:41.630Z,95915.00
2019-05-18T22:43:11.515Z,95906.00
2019-05-18T22:45:42.117Z,95914.00
2019-05-18T22:48:12.434Z,95907.00
2019-05-18T22:50:41.993Z,95910.00
2019-05-18T22:53:12.291Z,95905.00
2019-05-18T22:55:42.596Z,95910.00
2019-05-18T22:58:12.485Z,95897.00
2019-05-18T23:00:42.599Z,95908.00
2019-05-18T23:03:12.358Z,95902.00
2019-05-18T23:05:42.488Z,95902.00
2019-05-18T23:08:12.361Z,95902.00
2019-05-18T23:10:42.616Z,95899.00
2019-05-18T23:13:12.372Z,95895.00
2019-05-18T23:15:42.003Z,95886.00
2019-05-18T23:18:12.369Z,95883.00
2019-05-18T23:20:42.487Z,95887.00
2019-05-18T23:23:12.734Z,95884.00
2019-05-18T23:25:42.847Z,95877.00
2019-05-18T23:28:13.217Z,95880.00
2019-05-18T23:30:43.209Z,95876.00
2019-05-18T23:33:13.239Z,95874.00
2019-05-18T23:35:42.848Z,95871.00
2019-05-18T23:38:12.847Z,95868.00
2019-05-18T23:40:42.855Z,95864.00
2019-05-18T23:43:12.609Z,95863.00
2019-05-18T23:45:42.849Z,95859.00
2019-05-18T23:48:13.097Z,95852.00
2019-05-18T23:50:43.220Z,95857.00
2019-05-18T23:53:13.338Z,95856.00
2019-05-18T23:55:42.979Z,95853.00
2019-05-18T23:58:13.102Z,95857.00
